Flugplatz Wahlstedt (EDHW)

Hier findest Du alle Informationen zum Flugplatz Wahlstedt (EDHW).

Informationen für Piloten zum Flugplatz Wahlstedt

Hier findest Du alle relevanten Informationen, die Du als Pilot benötigst, um Wahlstedt anzufliegen.

Flugplatz: Wahlstedt ICAO-Code: EDHW
Frequenz Turm: 121,025 Mhz GAFOR Gebiet: 3
Frequenz Ground: 121,025 Mhz Mogas: nein
Platzrunde: N 1100 ft Landegebühr: -
Platzhöhe: - Sunrise: 07:10 Uhr UTC
Pisten: 11/29 - 600 m x 30 m, GRAS Sunset: 15:53 Uhr UTC

Mitglieder, die in Wahlstedt fliegen

Flugwetter am Flugplatz Wahlstedt

Die METAR Information stammen aus EDHL (37.19 km entfernt).

METAR Code:
2023/01/12 06:50
EDHL 120650Z 20007KT 130V290 9999 -RA OVC011 07/06 Q1002

Temperatur: 2,2 °C Niederschlag: - Wind: 7,0 kt (max.: 9,8 kt in Böen)
Temperatur (min.): 1,6 °C Luftdruck: 1027 hPa Windrichtung: 259 °
Temperatur (max.): 3,3 °C Luftfeuchtigkeit: 85 % Bewölkung: 1/8

Flugschulen am Flugplatz Wahlstedt

Am Flugplatz Wahlstedt gibt es leider keine Flugschule.

Benachbarte Flugplätze und Flugschulen

Es gibt 11 weitere Flugplätze in einem Umkreis von 50 km um den Flugplatz Wahlstedt.

Jetzt anmelden

Passwort vergessen

Umfrage Archiv

Sendet Ihr ADS-B und/oder FLARM?

Ja
84.7 %
Nein
15.3 %
Stimmen: 274 | Diskussion
Anzeige: Roland Aircraft
Statistik Alle Mitglieder

Aktuell sind 72 Besucher online, davon 2 Mitglieder und 70 Gäste.


Mitglieder online:
monstertyp  Chris_EDNC 

Anzeige: ULPower Aero Engines Anzeige: EasyVFR